Archiv-/Tagesdaten

--Timestamp---	Temp	Chill	HIndex	Humid	Dewpt	 Wind 	HiWind	WindDir	Rain 	Barom	Solar	 ET  	 UV 
--------------	----	-----	------	-----	-----	------	------	-------	-----	-----	-----	-----	----
20100807 00:00	11.6	11.6	11.6	94	10.7	13	19	270	0.0	1018.0	0	0.000	0.0
20100807 00:05	11.6	11.6	11.6	94	10.7	11	21	248	0.0	1018.1	0	0.000	0.0
20100807 00:10	11.6	11.6	11.6	94	10.7	14	24	270	0.0	1018.1	0	0.000	0.0
20100807 00:15	11.6	11.6	11.6	94	10.7	14	24	270	0.0	1017.9	0	0.000	0.0
20100807 00:20	11.6	11.6	11.6	94	10.7	14	26	270	0.0	1017.8	0	0.000	0.0
20100807 00:25	11.6	11.6	11.6	94	10.7	13	23	270	0.2	1017.8	0	0.000	0.0
20100807 00:30	11.6	11.6	11.6	94	10.7	13	24	270	0.0	1018.0	0	0.000	0.0
20100807 00:35	11.6	11.6	11.6	94	10.7	13	24	270	0.0	1018.0	0	0.000	0.0
20100807 00:40	11.6	11.6	11.6	94	10.7	13	23	270	0.0	1018.0	0	0.000	0.0
20100807 00:45	11.6	11.6	11.6	94	10.7	16	29	270	0.0	1017.8	0	0.000	0.0
20100807 00:50	11.6	11.6	11.6	94	10.7	13	29	270	0.0	1017.9	0	0.000	0.0
20100807 00:55	11.6	11.6	11.6	94	10.7	10	16	270	0.0	1018.0	0	0.000	0.0
20100807 01:00	11.6	11.6	11.6	94	10.7	10	19	270	0.0	1018.1	0	0.000	0.0
20100807 01:05	11.6	11.6	11.6	94	10.7	11	21	270	0.2	1018.1	0	0.000	0.0
20100807 01:10	11.6	11.6	11.6	94	10.7	10	18	270	0.0	1018.1	0	0.000	0.0
20100807 01:15	11.7	11.7	11.7	94	10.7	10	21	248	0.0	1018.0	0	0.000	0.0
20100807 01:20	11.6	11.6	11.6	94	10.7	11	18	270	0.0	1018.0	0	0.000	0.0
20100807 01:25	11.6	11.6	11.6	94	10.7	11	21	248	0.0	1018.0	0	0.000	0.0
20100807 01:30	11.6	11.6	11.6	94	10.7	11	24	248	0.0	1018.0	0	0.000	0.0
20100807 01:35	11.6	11.6	11.6	94	10.7	13	21	270	0.0	1018.0	0	0.000	0.0
20100807 01:40	11.6	11.6	11.6	94	10.7	14	24	270	0.0	1017.8	0	0.000	0.0
20100807 01:45	11.6	11.6	11.6	94	10.7	16	32	270	0.0	1017.8	0	0.000	0.0
20100807 01:50	11.6	11.6	11.6	94	10.7	13	26	270	0.0	1017.8	0	0.000	0.0
20100807 01:55	11.6	11.6	11.6	94	10.7	13	26	270	0.0	1017.8	0	0.000	0.0
20100807 02:00	11.6	11.6	11.6	94	10.7	14	27	270	0.2	1017.8	0	0.000	0.0
20100807 02:05	11.6	11.6	11.6	94	10.7	16	29	270	0.0	1017.8	0	0.000	0.0
20100807 02:10	11.6	11.6	11.6	94	10.6	16	27	248	0.0	1017.8	0	0.000	0.0
20100807 02:15	11.6	11.6	11.6	94	10.6	21	32	248	0.0	1017.8	0	0.000	0.0
20100807 02:20	11.5	11.5	11.5	94	10.6	19	29	248	0.0	1017.8	0	0.000	0.0
20100807 02:25	11.5	11.5	11.5	94	10.6	14	24	270	0.0	1017.9	0	0.000	0.0
20100807 02:30	11.4	11.4	11.4	93	10.4	16	29	248	0.0	1018.0	0	0.000	0.0
20100807 02:35	11.4	11.4	11.4	93	10.4	13	27	270	0.0	1018.0	0	0.000	0.0
20100807 02:40	11.4	11.4	11.4	93	10.3	13	21	248	0.2	1018.0	0	0.000	0.0
20100807 02:45	11.3	11.3	11.3	94	10.4	14	21	270	0.2	1018.1	0	0.000	0.0
20100807 02:50	11.3	11.3	11.3	94	10.3	13	23	270	0.2	1018.0	0	0.000	0.0
20100807 02:55	11.3	11.3	11.3	94	10.3	14	21	248	0.2	1018.0	0	0.000	0.0
20100807 03:00	11.2	11.2	11.2	94	10.3	11	21	248	0.2	1018.0	0	0.000	0.0
20100807 03:05	11.2	11.2	11.2	94	10.3	13	23	270	0.0	1018.1	0	0.000	0.0
20100807 03:10	11.2	11.2	11.2	94	10.3	11	23	270	0.0	1018.0	0	0.000	0.0
20100807 03:15	11.2	11.2	11.2	94	10.3	11	24	270	0.0	1018.0	0	0.000	0.0
20100807 03:20	11.2	11.2	11.2	94	10.2	13	24	270	0.0	1017.9	0	0.000	0.0
20100807 03:25	11.2	11.2	11.2	94	10.3	13	24	248	0.2	1017.8	0	0.000	0.0
20100807 03:30	11.2	11.2	11.2	94	10.3	13	24	248	0.0	1017.8	0	0.000	0.0
20100807 03:35	11.2	11.2	11.2	94	10.2	13	23	248	0.2	1017.7	0	0.000	0.0
20100807 03:40	11.2	11.2	11.2	94	10.3	13	21	248	0.2	1017.8	0	0.000	0.0
20100807 03:45	11.2	11.2	11.2	94	10.2	14	23	270	0.0	1017.8	0	0.000	0.0
20100807 03:50	11.2	11.2	11.2	94	10.2	13	23	270	0.2	1017.8	0	0.000	0.0
20100807 03:55	11.2	11.2	11.2	94	10.3	13	21	248	0.0	1017.8	0	0.000	0.0
20100807 04:00	11.2	11.2	11.2	94	10.3	13	24	270	0.2	1017.7	0	0.000	0.0
20100807 04:05	11.2	11.2	11.2	94	10.3	13	23	248	0.0	1017.7	0	0.000	0.0
20100807 04:10	11.2	11.2	11.2	94	10.3	13	21	248	0.0	1017.7	0	0.000	0.0
20100807 04:15	11.2	11.2	11.2	94	10.3	10	23	270	0.0	1017.7	0	0.000	0.0
20100807 04:20	11.2	11.2	11.2	93	10.1	16	26	248	0.0	1017.7	0	0.000	0.0
20100807 04:25	11.3	11.3	11.3	93	10.2	14	24	248	0.2	1017.7	0	0.000	0.0
20100807 04:30	11.3	11.3	11.3	93	10.2	13	23	270	0.2	1017.8	0	0.000	0.0
20100807 04:35	11.3	11.3	11.3	93	10.2	11	18	248	0.2	1017.8	0	0.000	0.0
20100807 04:40	11.3	11.3	11.3	93	10.2	10	24	270	0.2	1017.9	0	0.000	0.0
20100807 04:45	11.2	11.2	11.2	93	10.1	11	23	270	0.2	1017.8	0	0.000	0.0
20100807 04:50	11.2	11.2	11.2	93	10.1	13	23	248	0.0	1017.9	0	0.000	0.0
20100807 04:55	11.2	11.2	11.2	93	10.1	13	23	270	0.4	1017.9	0	0.000	0.0
20100807 05:00	11.2	11.2	11.2	93	10.1	10	21	270	0.2	1018.0	0	0.000	0.0
20100807 05:05	11.2	11.2	11.2	93	10.1	13	24	248	0.2	1018.0	0	0.000	0.0
20100807 05:10	11.3	11.3	11.3	93	10.2	10	23	270	0.2	1018.0	0	0.000	0.0
20100807 05:15	11.2	11.2	11.2	93	10.1	11	21	270	0.0	1018.0	0	0.000	0.0
20100807 05:20	11.3	11.3	11.3	94	10.3	11	27	248	0.4	1018.0	0	0.000	0.0
20100807 05:25	11.2	11.2	11.2	94	10.3	13	24	270	0.2	1018.0	0	0.000	0.0
20100807 05:30	11.2	11.2	11.2	94	10.3	13	23	270	0.4	1018.0	0	0.000	0.0
20100807 05:35	11.2	11.2	11.2	94	10.3	11	23	270	0.2	1018.0	0	0.000	0.0
20100807 05:40	11.3	11.3	11.3	94	10.3	11	23	248	0.2	1018.0	0	0.000	0.0
20100807 05:45	11.3	11.3	11.3	94	10.3	10	19	270	0.2	1018.0	0	0.000	0.0
20100807 05:50	11.3	11.3	11.3	94	10.3	13	23	248	0.2	1018.1	0	0.000	0.0
20100807 05:55	11.3	11.3	11.3	94	10.3	13	21	248	0.2	1018.1	0	0.000	0.0
20100807 06:00	11.3	11.3	11.3	94	10.3	13	23	248	0.2	1018.1	0	0.000	0.0
20100807 06:05	11.3	11.3	11.3	94	10.3	11	21	270	0.0	1018.2	0	0.000	0.0
20100807 06:10	11.2	11.2	11.2	94	10.3	13	23	270	0.2	1018.2	0	0.000	0.0
20100807 06:15	11.2	11.2	11.2	94	10.3	13	23	270	0.2	1018.2	0	0.000	0.0
20100807 06:20	11.3	11.3	11.3	94	10.3	11	19	270	0.0	1018.2	0	0.000	0.0
20100807 06:25	11.3	11.3	11.3	94	10.3	11	19	248	0.0	1018.2	0	0.000	0.0
20100807 06:30	11.3	11.3	11.3	94	10.3	10	19	270	0.2	1018.2	0	0.000	0.0
20100807 06:35	11.3	11.3	11.3	94	10.3	11	23	270	0.2	1018.2	0	0.000	0.0
20100807 06:40	11.3	11.3	11.3	94	10.3	11	23	270	0.0	1018.3	0	0.000	0.0
20100807 06:45	11.3	11.3	11.3	94	10.3	13	26	270	0.2	1018.3	0	0.000	0.0
20100807 06:50	11.3	11.3	11.3	94	10.3	11	19	270	0.2	1018.3	0	0.000	0.0
20100807 06:55	11.3	11.3	11.3	94	10.3	11	23	248	0.2	1018.3	3	0.000	0.0
20100807 07:00	11.3	11.3	11.3	93	10.2	11	21	248	0.2	1018.3	6	0.000	0.0
20100807 07:05	11.3	11.3	11.3	93	10.2	13	24	248	0.2	1018.3	9	0.000	0.0
20100807 07:10	11.3	11.3	11.3	93	10.2	11	23	248	0.0	1018.3	11	0.000	0.0
20100807 07:15	11.3	11.3	11.3	93	10.2	11	23	248	0.2	1018.4	11	0.000	0.0
20100807 07:20	11.3	11.3	11.3	93	10.2	10	19	248	0.0	1018.4	11	0.000	0.0
20100807 07:25	11.3	11.3	11.3	93	10.2	11	21	248	0.2	1018.4	14	0.000	0.0
20100807 07:30	11.4	11.4	11.4	93	10.3	13	24	248	0.0	1018.3	21	0.000	0.0
20100807 07:35	11.4	11.4	11.4	93	10.3	11	21	270	0.2	1018.5	20	0.000	0.0
20100807 07:40	11.4	11.4	11.4	93	10.3	11	23	270	0.0	1018.4	19	0.000	0.0
20100807 07:45	11.4	11.4	11.4	93	10.3	11	21	270	0.0	1018.5	20	0.000	0.0
20100807 07:50	11.4	11.4	11.4	93	10.4	13	24	270	0.0	1018.4	24	0.000	0.0
20100807 07:55	11.4	11.4	11.4	93	10.4	10	24	270	0.0	1018.5	23	0.000	0.0
20100807 08:00	11.4	11.4	11.4	93	10.4	11	24	248	0.0	1018.6	21	0.025	0.0
20100807 08:05	11.4	11.4	11.4	93	10.4	14	24	270	0.0	1018.5	23	0.000	0.0
20100807 08:10	11.5	11.5	11.5	93	10.4	13	23	270	0.0	1018.6	22	0.000	0.0
20100807 08:15	11.5	11.5	11.5	93	10.4	14	23	248	0.2	1018.5	22	0.000	0.0
20100807 08:20	11.5	11.5	11.5	93	10.4	13	24	248	0.0	1018.6	24	0.000	0.0
20100807 08:25	11.6	11.6	11.6	93	10.5	11	24	270	0.0	1018.6	32	0.000	0.0
20100807 08:30	11.6	11.6	11.6	93	10.5	13	23	270	0.0	1018.6	35	0.000	0.0
20100807 08:35	11.6	11.6	11.6	93	10.5	14	24	248	0.2	1018.6	42	0.000	0.0
20100807 08:40	11.7	11.7	11.7	93	10.6	13	26	270	0.0	1018.7	55	0.000	0.0
20100807 08:45	11.7	11.7	11.7	93	10.6	13	23	270	0.2	1018.7	60	0.000	0.0
20100807 08:50	11.7	11.7	11.7	93	10.6	13	23	270	0.0	1018.7	56	0.000	0.0
20100807 08:55	11.7	11.7	11.7	93	10.6	13	21	270	0.2	1018.7	58	0.000	0.0
20100807 09:00	11.8	11.8	11.8	93	10.7	10	18	270	0.0	1018.7	57	0.025	0.0
20100807 09:05	11.8	11.8	11.8	93	10.7	13	23	270	0.2	1018.7	49	0.000	0.0
20100807 09:10	11.8	11.8	11.8	93	10.7	13	23	270	0.0	1018.8	38	0.000	0.0
20100807 09:15	11.8	11.8	11.8	93	10.7	11	23	270	0.0	1018.9	39	0.000	0.0
20100807 09:20	11.8	11.8	11.8	93	10.7	13	19	270	0.2	1018.9	63	0.000	0.1
20100807 09:25	11.8	11.8	11.8	93	10.7	11	19	270	0.0	1018.9	70	0.000	0.4
20100807 09:30	11.9	11.9	11.9	93	10.8	11	19	270	0.2	1018.9	62	0.000	0.1
20100807 09:35	11.9	11.9	11.9	93	10.8	10	19	292	0.0	1019.0	48	0.000	0.0
20100807 09:40	11.9	11.9	11.9	93	10.8	11	19	270	0.0	1019.0	40	0.000	0.0
20100807 09:45	11.9	11.9	11.9	93	10.8	10	19	270	0.0	1019.1	34	0.000	0.0
20100807 09:50	11.9	11.9	11.9	93	10.8	10	19	270	0.2	1019.1	37	0.000	0.0
20100807 09:55	11.9	11.9	11.9	93	10.8	8	14	270	0.0	1019.1	43	0.000	0.0
20100807 10:00	11.9	11.9	11.9	93	10.8	10	21	270	0.0	1019.0	59	0.025	0.0
20100807 10:05	12.1	12.1	12.1	93	11.0	10	18	248	0.2	1019.1	59	0.000	0.0
20100807 10:10	12.1	12.1	12.1	93	11.0	10	14	270	0.0	1019.1	51	0.000	0.0
20100807 10:15	12.1	12.1	12.1	93	11.0	10	18	292	0.0	1019.2	45	0.000	0.0
20100807 10:20	12.1	12.1	12.1	93	11.0	10	19	270	0.0	1019.2	39	0.000	0.0
20100807 10:25	12.1	12.1	12.1	93	11.0	10	19	270	0.2	1019.2	32	0.000	0.0
20100807 10:30	12.1	12.1	12.1	93	11.0	10	16	270	0.0	1019.2	33	0.000	0.0
20100807 10:35	12.1	12.1	12.1	93	11.0	10	19	248	0.0	1019.2	38	0.000	0.0
20100807 10:40	12.1	12.1	12.1	93	11.0	8	16	248	0.0	1019.2	48	0.000	0.0
20100807 10:45	12.2	12.2	12.2	93	11.1	10	19	248	0.0	1019.2	56	0.000	0.2
20100807 10:50	12.2	12.2	12.2	93	11.1	10	16	248	0.0	1019.2	71	0.000	0.6
20100807 10:55	12.3	12.3	12.3	93	11.2	10	18	270	0.0	1019.2	74	0.000	0.6
20100807 11:00	12.3	12.3	12.3	93	11.2	11	19	248	0.2	1019.2	64	0.025	0.6
20100807 11:05	12.3	12.3	12.3	93	11.2	10	18	270	0.0	1019.2	61	0.000	0.5
20100807 11:10	12.3	12.3	12.3	93	11.2	11	21	270	0.2	1019.3	57	0.000	0.5
20100807 11:15	12.4	12.4	12.4	93	11.3	11	23	270	0.0	1019.3	57	0.000	0.5
20100807 11:20	12.4	12.4	12.4	93	11.3	13	19	270	0.0	1019.3	54	0.000	0.0
20100807 11:25	12.4	12.4	12.4	93	11.3	13	26	248	0.0	1019.3	54	0.000	0.0
20100807 11:30	12.4	12.4	12.4	93	11.3	11	21	270	0.0	1019.3	59	0.000	0.6
20100807 11:35	12.4	12.4	12.4	93	11.3	10	19	270	0.0	1019.3	59	0.000	0.6
20100807 11:40	12.4	12.4	12.4	93	11.3	11	21	248	0.0	1019.3	79	0.000	0.8
20100807 11:45	12.5	12.5	12.5	93	11.4	11	18	270	0.0	1019.3	96	0.000	1.0
20100807 11:50	12.6	12.6	12.6	93	11.5	10	18	270	0.0	1019.1	104	0.000	1.0
20100807 11:55	12.7	12.7	12.7	93	11.6	8	14	270	0.0	1019.0	97	0.000	1.0
20100807 12:00	12.8	12.8	12.8	93	11.7	11	21	270	0.0	1019.0	109	0.051	1.1
20100807 12:05	12.9	12.9	12.9	93	11.8	10	21	270	0.0	1019.0	103	0.000	1.0
20100807 12:10	12.9	12.9	12.9	93	11.8	10	19	270	0.0	1019.1	100	0.000	1.0
20100807 12:15	13.1	13.1	13.1	93	11.9	8	16	270	0.0	1019.1	117	0.000	1.2
20100807 12:20	13.2	13.2	13.2	92	11.9	11	21	270	0.0	1019.1	132	0.000	1.3
20100807 12:25	13.3	13.3	13.3	92	12.0	10	19	270	0.0	1019.0	150	0.000	1.5
20100807 12:30	13.5	13.5	13.5	92	12.2	11	18	248	0.0	1019.0	155	0.000	1.5
20100807 12:35	13.6	13.6	13.6	92	12.3	11	19	248	0.0	1019.0	155	0.000	1.5
20100807 12:40	13.7	13.7	13.7	92	12.4	8	16	270	0.0	1019.0	150	0.000	1.5
20100807 12:45	13.8	13.8	13.8	92	12.5	8	14	225	0.0	1018.9	135	0.000	1.3
20100807 12:50	13.8	13.8	13.8	91	12.4	6	13	248	0.0	1019.0	169	0.000	1.7
20100807 12:55	14.0	14.0	14.0	91	12.6	6	11	248	0.0	1018.9	175	0.000	1.7
20100807 13:00	14.1	14.1	14.1	91	12.7	5	11	270	0.0	1018.9	172	0.076	1.7
20100807 13:05	14.2	14.2	14.2	90	12.5	6	14	270	0.0	1018.9	192	0.000	1.9
20100807 13:10	14.3	14.3	14.3	91	12.9	6	10	248	0.0	1018.8	214	0.000	2.1
20100807 13:15	14.6	14.6	14.6	90	12.9	6	11	248	0.0	1018.8	189	0.000	1.9
20100807 13:20	14.7	14.7	14.7	90	13.0	6	11	270	0.0	1018.8	201	0.000	2.0
20100807 13:25	14.8	14.8	14.8	89	13.0	6	18	270	0.0	1018.7	224	0.000	2.3
20100807 13:30	15.0	15.0	15.0	89	13.2	6	16	270	0.0	1018.6	232	0.000	2.3
20100807 13:35	15.1	15.1	15.1	89	13.3	8	16	248	0.0	1018.6	247	0.000	2.4
20100807 13:40	15.3	15.3	15.3	88	13.4	10	18	248	0.0	1018.6	273	0.000	2.7
20100807 13:45	15.6	15.6	15.6	88	13.6	10	16	248	0.0	1018.5	317	0.000	3.1
20100807 13:50	15.8	15.8	15.8	85	13.3	11	21	270	0.0	1018.5	383	0.000	3.6
20100807 13:55	16.0	16.0	16.0	84	13.3	10	21	248	0.0	1018.3	490	0.000	4.3
20100807 14:00	16.3	16.3	16.3	85	13.8	10	18	270	0.0	1018.3	451	0.152	3.9
20100807 14:05	16.6	16.6	16.6	82	13.5	10	18	292	0.0	1018.3	365	0.000	3.2
20100807 14:10	16.7	16.7	16.7	81	13.4	11	19	270	0.0	1018.3	338	0.000	3.0
20100807 14:15	16.8	16.8	16.8	80	13.4	10	16	270	0.0	1018.3	375	0.000	3.4
20100807 14:20	16.9	16.9	16.9	77	12.9	13	23	270	0.0	1018.3	383	0.000	3.3
20100807 14:25	17.1	17.1	17.1	78	13.2	10	21	270	0.0	1018.3	316	0.000	2.8
20100807 14:30	17.2	17.2	17.2	80	13.7	8	19	270	0.0	1018.3	243	0.000	2.3
20100807 14:35	17.2	17.2	17.2	78	13.3	8	16	270	0.0	1018.3	240	0.000	2.2
20100807 14:40	17.3	17.3	17.3	77	13.2	6	14	270	0.0	1018.3	274	0.000	2.4
20100807 14:45	17.3	17.3	17.3	76	13.0	8	14	270	0.2	1018.2	271	0.000	2.4
20100807 14:50	17.3	17.3	17.3	75	12.9	10	18	292	0.0	1018.3	266	0.000	2.3
20100807 14:55	17.4	17.4	17.4	74	12.7	6	16	292	0.0	1018.2	254	0.000	2.2
20100807 15:00	17.4	17.4	17.4	74	12.7	11	18	270	0.0	1018.3	231	0.178	2.0
20100807 15:05	17.4	17.4	17.4	75	12.9	6	11	270	0.0	1018.3	193	0.000	1.7
20100807 15:10	17.4	17.4	17.4	76	13.2	8	11	270	0.0	1018.4	200	0.000	1.7
20100807 15:15	17.5	17.5	17.5	75	13.0	8	11	292	0.0	1018.3	198	0.000	1.6
20100807 15:20	17.5	17.5	17.5	74	12.8	6	11	270	0.0	1018.2	202	0.000	1.7
20100807 15:25	17.6	17.6	17.6	73	12.7	8	16	270	0.0	1018.2	218	0.000	1.8
20100807 15:30	17.6	17.6	17.6	73	12.7	8	13	270	0.0	1018.1	243	0.000	2.0
20100807 15:35	17.7	17.7	17.7	73	12.8	5	10	270	0.0	1018.1	263	0.000	2.1
20100807 15:40	17.8	17.8	17.8	72	12.7	5	11	270	0.0	1018.2	277	0.000	2.2
20100807 15:45	17.9	17.9	17.9	74	13.2	5	8	270	0.0	1018.1	285	0.000	2.3
20100807 15:50	18.1	18.1	18.1	73	13.1	5	11	270	0.0	1018.1	295	0.000	2.3
20100807 15:55	18.2	18.2	18.2	72	13.0	5	10	292	0.0	1018.1	314	0.000	2.5
20100807 16:00	18.3	18.3	18.3	71	13.0	6	10	292	0.0	1018.1	344	0.152	2.8
20100807 16:05	18.6	18.6	18.6	73	13.7	5	10	315	0.0	1018.1	474	0.000	3.9
20100807 16:10	19.2	19.2	19.2	70	13.6	5	11	270	0.0	1017.8	686	0.000	4.0
20100807 16:15	19.6	19.6	19.6	66	13.1	8	14	292	0.0	1017.9	485	0.000	3.1
20100807 16:20	19.7	19.7	19.7	66	13.2	8	14	270	0.0	1017.8	641	0.000	3.4
20100807 16:25	20.1	20.1	20.1	65	13.3	6	10	270	0.0	1017.6	637	0.000	3.6
20100807 16:30	20.3	20.3	20.3	63	13.1	8	16	270	0.0	1017.7	651	0.000	3.1
20100807 16:35	20.2	20.2	20.2	62	12.7	8	11	270	0.0	1017.7	172	0.000	1.6
20100807 16:40	19.7	19.7	19.7	65	13.0	11	19	292	0.0	1017.7	113	0.000	0.9
20100807 16:45	19.3	19.3	19.3	66	12.8	11	21	292	0.0	1017.7	130	0.000	0.9
20100807 16:50	19.1	19.1	19.1	68	13.0	10	16	292	0.0	1017.8	195	0.000	1.3
20100807 16:55	19.1	19.1	19.1	70	13.5	6	11	270	0.0	1017.7	281	0.000	1.7
20100807 17:00	19.2	19.2	19.2	68	13.1	8	16	292	0.0	1017.7	308	0.254	1.8
20100807 17:05	19.3	19.3	19.3	66	12.8	8	16	270	0.0	1017.7	269	0.000	1.7
20100807 17:10	19.4	19.4	19.4	67	13.1	8	16	292	0.0	1017.8	291	0.000	1.6
20100807 17:15	19.6	19.6	19.6	66	13.0	6	14	225	0.0	1017.7	309	0.000	1.7
20100807 17:20	19.7	19.7	19.7	65	13.0	8	14	270	0.0	1017.6	297	0.000	1.5
20100807 17:25	19.7	19.7	19.7	66	13.2	6	11	292	0.0	1017.5	168	0.000	1.3
20100807 17:30	19.6	19.6	19.6	66	13.0	8	11	270	0.0	1017.6	135	0.000	0.9
20100807 17:35	19.4	19.4	19.4	66	12.9	6	10	270	0.0	1017.7	140	0.000	0.8
20100807 17:40	19.3	19.3	19.3	68	13.3	6	8	270	0.0	1017.6	203	0.000	1.1
20100807 17:45	19.5	19.5	19.5	66	13.0	8	13	292	0.0	1017.7	255	0.000	1.3
20100807 17:50	19.6	19.6	19.6	65	12.8	8	14	292	0.0	1017.7	180	0.000	1.2
20100807 17:55	19.5	19.5	19.5	65	12.7	8	14	248	0.0	1017.7	118	0.000	1.0
20100807 18:00	19.5	19.5	19.5	68	13.4	5	10	270	0.0	1017.6	143	0.152	1.1
20100807 18:05	19.8	19.8	19.8	67	13.5	5	6	270	0.0	1017.6	381	0.000	1.2
20100807 18:10	20.2	20.2	20.2	63	12.9	6	10	270	0.0	1017.4	337	0.000	1.1
20100807 18:15	20.6	20.6	20.6	62	13.0	5	10	248	0.0	1017.4	327	0.000	1.1
20100807 18:20	20.8	20.8	20.8	61	13.0	6	10	248	0.0	1017.4	308	0.000	0.9
20100807 18:25	20.9	20.9	20.9	62	13.4	5	8	248	0.0	1017.3	354	0.000	0.9
20100807 18:30	21.1	21.1	21.1	60	13.0	6	11	292	0.0	1017.4	312	0.000	0.9
20100807 18:35	21.1	21.1	21.1	61	13.3	5	10	292	0.0	1017.4	266	0.000	0.8
20100807 18:40	21.1	21.1	21.1	60	13.0	6	10	292	0.0	1017.4	147	0.000	0.6
20100807 18:45	20.9	20.9	20.9	61	13.1	5	6	315	0.0	1017.3	165	0.000	0.6
20100807 18:50	20.7	20.7	20.7	62	13.2	3	6	315	0.0	1017.4	182	0.000	0.6
20100807 18:55	20.5	20.5	20.5	63	13.2	3	5	315	0.0	1017.4	61	0.000	0.5
20100807 19:00	20.2	20.2	20.2	64	13.2	2	5	315	0.0	1017.4	84	0.178	0.2
20100807 19:05	20.0	20.0	20.0	66	13.4	0	3	315	0.0	1017.4	75	0.000	0.0
20100807 19:10	19.8	19.8	19.8	69	13.9	0	0	-100000	0.0	1017.4	95	0.000	0.0
20100807 19:15	19.7	19.7	19.7	68	13.6	0	2	315	0.0	1017.5	72	0.000	0.0
20100807 19:20	19.5	19.5	19.5	70	13.9	0	5	315	0.0	1017.5	59	0.000	0.0
20100807 19:25	19.4	19.4	19.4	67	13.1	2	3	315	0.0	1017.5	53	0.000	0.0
20100807 19:30	19.3	19.3	19.3	67	13.0	0	3	315	0.0	1017.6	49	0.000	0.0
20100807 19:35	19.2	19.2	19.2	68	13.2	0	2	315	0.0	1017.5	43	0.000	0.0
20100807 19:40	19.2	19.2	19.2	71	13.8	0	2	315	0.0	1017.5	37	0.000	0.0
20100807 19:45	18.9	18.9	18.9	67	12.7	2	3	315	0.0	1017.6	37	0.000	0.0
20100807 19:50	18.9	18.9	18.9	72	13.7	0	0	-100000	0.0	1017.5	31	0.000	0.0
20100807 19:55	18.7	18.7	18.7	73	13.8	0	2	315	0.0	1017.5	28	0.000	0.0
20100807 20:00	18.6	18.6	18.6	74	13.8	0	0	-100000	0.0	1017.6	28	0.025	0.0
20100807 20:05	18.3	18.3	18.3	74	13.6	0	0	-100000	0.0	1017.5	26	0.000	0.0
20100807 20:10	18.2	18.2	18.2	75	13.7	0	0	-100000	0.0	1017.5	21	0.000	0.0
20100807 20:15	18.0	18.0	18.0	77	13.9	0	0	-100000	0.0	1017.7	18	0.000	0.0
20100807 20:20	17.8	17.8	17.8	78	13.9	0	0	-100000	0.0	1017.7	15	0.000	0.0
20100807 20:25	17.5	17.5	17.5	78	13.6	0	0	-100000	0.0	1017.8	12	0.000	0.0
20100807 20:30	17.2	17.2	17.2	79	13.5	0	0	-100000	0.0	1017.8	10	0.000	0.0
20100807 20:35	16.9	16.9	16.9	80	13.5	0	0	-100000	0.0	1017.9	8	0.000	0.0
20100807 20:40	16.7	16.7	16.7	81	13.4	0	0	-100000	0.0	1018.1	5	0.000	0.0
20100807 20:45	16.5	16.5	16.5	81	13.2	0	0	-100000	0.0	1018.2	0	0.000	0.0
20100807 20:50	16.3	16.3	16.3	82	13.2	0	2	315	0.0	1018.2	0	0.000	0.0
20100807 20:55	16.1	16.1	16.1	82	13.0	0	0	-100000	0.0	1018.3	0	0.000	0.0
20100807 21:00	15.9	15.9	15.9	82	12.8	0	0	-100000	0.0	1018.3	0	0.000	0.0
20100807 21:05	15.7	15.7	15.7	83	12.8	0	0	-100000	0.0	1018.4	0	0.000	0.0
20100807 21:10	15.6	15.6	15.6	83	12.7	0	0	-100000	0.0	1018.4	0	0.000	0.0
20100807 21:15	15.4	15.4	15.4	84	12.8	0	2	315	0.0	1018.5	0	0.000	0.0
20100807 21:20	15.3	15.3	15.3	84	12.6	0	6	292	0.0	1018.5	0	0.000	0.0
20100807 21:25	15.2	15.2	15.2	84	12.5	0	3	292	0.0	1018.6	0	0.000	0.0
20100807 21:30	15.1	15.1	15.1	84	12.4	0	5	292	0.0	1018.6	0	0.000	0.0
20100807 21:35	15.0	15.0	15.0	85	12.5	0	3	292	0.0	1018.7	0	0.000	0.0
20100807 21:40	15.0	15.0	15.0	85	12.5	2	5	292	0.0	1018.7	0	0.000	0.0
20100807 21:45	14.9	14.9	14.9	86	12.6	2	5	292	0.0	1018.7	0	0.000	0.0
20100807 21:50	14.8	14.8	14.8	86	12.5	2	5	270	0.0	1018.7	0	0.000	0.0
20100807 21:55	14.7	14.7	14.7	86	12.4	2	5	270	0.0	1018.6	0	0.000	0.0
20100807 22:00	14.6	14.6	14.6	87	12.5	2	5	270	0.0	1018.7	0	0.025	0.0
20100807 22:05	14.5	14.5	14.5	87	12.4	3	6	270	0.0	1018.7	0	0.000	0.0
20100807 22:10	14.4	14.4	14.4	87	12.3	3	6	270	0.0	1018.6	0	0.000	0.0
20100807 22:15	14.3	14.3	14.3	87	12.2	3	6	225	0.0	1018.6	0	0.000	0.0
20100807 22:20	14.2	14.2	14.2	87	12.1	3	6	225	0.0	1018.6	0	0.000	0.0
20100807 22:25	14.1	14.1	14.1	88	12.2	3	6	225	0.0	1018.8	0	0.000	0.0
20100807 22:30	13.9	13.9	13.9	88	12.0	3	6	225	0.0	1018.8	0	0.000	0.0
20100807 22:35	13.9	13.9	13.9	88	11.9	3	8	225	0.0	1018.7	0	0.000	0.0
20100807 22:40	13.8	13.8	13.8	88	11.9	5	6	225	0.0	1018.7	0	0.000	0.0
20100807 22:45	13.8	13.8	13.8	89	12.0	3	6	225	0.0	1018.7	0	0.000	0.0
20100807 22:50	13.7	13.7	13.7	89	11.9	3	6	225	0.0	1018.6	0	0.000	0.0
20100807 22:55	13.7	13.7	13.7	89	11.9	3	6	225	0.0	1018.7	0	0.000	0.0
20100807 23:00	13.6	13.6	13.6	89	11.8	2	5	225	0.0	1018.6	0	0.025	0.0
20100807 23:05	13.6	13.6	13.6	89	11.8	3	6	225	0.0	1018.6	0	0.000	0.0
20100807 23:10	13.5	13.5	13.5	89	11.7	3	8	225	0.0	1018.6	0	0.000	0.0
20100807 23:15	13.4	13.4	13.4	89	11.6	3	6	225	0.0	1018.6	0	0.000	0.0
20100807 23:20	13.3	13.3	13.3	89	11.6	3	6	225	0.0	1018.6	0	0.000	0.0
20100807 23:25	13.3	13.3	13.3	89	11.5	2	5	225	0.0	1018.6	0	0.000	0.0
20100807 23:30	13.2	13.2	13.2	89	11.4	2	5	225	0.0	1018.6	0	0.000	0.0
20100807 23:35	13.1	13.1	13.1	89	11.3	0	5	225	0.0	1018.6	0	0.000	0.0
20100807 23:40	13.1	13.1	13.1	89	11.3	2	5	225	0.0	1018.6	0	0.000	0.0
20100807 23:45	12.9	12.9	12.9	89	11.2	3	6	225	0.0	1018.6	0	0.000	0.0
20100807 23:50	12.9	12.9	12.9	89	11.1	3	8	225	0.0	1018.6	0	0.000	0.0
20100807 23:55	12.8	12.8	12.8	89	11.0	3	8	225	0.0	1018.6	0	0.000	0.0
--------------------------------------------------------------------------------------------------------------------
Please note the license to use and transfer of this data:
http://creativecommons.org/licenses/by-nc-sa/3.0/deed.en

Bitte beachten sie die Lizenz zur Verwertung und Weitergabe der Daten:
http://creativecommons.org/licenses/by-nc-sa/3.0/deed.de



Please note the license to use and transfer of this data:
http://creativecommons.org/licenses/by-nc-sa/3.0/deed.en

Bitte beachten sie die Lizenz zur Verwertung und Weitergabe der Daten:
http://creativecommons.org/licenses/by-nc-sa/3.0/deed.de

zurück zur Übersicht der Archivdaten (Monats und Tagesdaten)

Cookies helfen bei der Bereitstellung von Inhalten. Durch die Nutzung dieser Seiten erklärst du dich damit einverstanden, dass Cookies auf deinem Rechner gespeichert werden. Weitere Information